KBEC/BEC METAR and TAF weather

Enter ICAO airport designator
Station Type Date Time Source
KBEC METAR 2020/02/20 23:35 UTC NOAA

KBEC 202335Z AUTO 36007KT 10SM CLR M02/M09 A3071 RMK AO2 T10221089


Station Type Date Time Source
KBEC Decoded METAR 2020/02/20 23:35 UTC NOAA

Station name not available
Feb 20, 2020 - 06:35 PM EST / 2020.02.20 2335 UTC
Wind: from the N (360 degrees) at 8 MPH (7 KT):0
Visibility: 10 mile(s):0
Sky conditions: clear
Temperature: 28.0 F (-2.2 C)
Windchill: 19 F (-7 C):1
Dew Point: 16.0 F (-8.9 C)
Relative Humidity: 60%
Pressure (altimeter): 30.71 in. Hg (1039 hPa)
ob: KBEC 202335Z AUTO 36007KT 10SM CLR M02/M09 A3071 RMK AO2 T10221089
cycle: 23

Station Type Date Time Source
KBEC TAF UTC NOAA

Error!

Example: see airport list